createdAt,value
2018-09-02T00:00:20.225Z,1013.17
2018-09-02T00:00:40.154Z,1013.18
2018-09-02T00:01:00.537Z,1013.17
2018-09-02T00:01:21.245Z,1013.17
2018-09-02T00:01:41.363Z,1013.10
2018-09-02T00:02:01.316Z,1013.17
2018-09-02T00:02:22.012Z,1013.18
2018-09-02T00:02:41.879Z,1013.11
2018-09-02T00:03:02.466Z,1013.14
2018-09-02T00:03:22.630Z,1013.12
2018-09-02T00:03:42.484Z,1013.11
2018-09-02T00:04:23.134Z,1013.11
2018-09-02T00:04:42.993Z,1013.10
2018-09-02T00:05:03.649Z,1013.10
2018-09-02T00:05:23.793Z,1013.11
2018-09-02T00:05:43.673Z,1013.18
2018-09-02T00:06:04.400Z,1013.12
2018-09-02T00:06:24.352Z,1013.06
2018-09-02T00:06:44.697Z,1013.09
2018-09-02T00:07:05.411Z,1013.10
2018-09-02T00:07:25.266Z,1013.03
2018-09-02T00:07:45.614Z,1013.14
2018-09-02T00:08:06.382Z,1013.12
2018-09-02T00:08:26.452Z,1013.13
2018-09-02T00:08:46.398Z,1013.10
2018-09-02T00:09:07.211Z,1013.12
2018-09-02T00:09:27.084Z,1013.13
2018-09-02T00:09:47.437Z,1013.12
2018-09-02T00:10:08.077Z,1013.13
2018-09-02T00:10:27.933Z,1013.15
2018-09-02T00:10:48.591Z,1013.15
2018-09-02T00:11:08.443Z,1013.10
2018-09-02T00:11:28.924Z,1013.10
2018-09-02T00:11:49.629Z,1013.16
2018-09-02T00:12:09.683Z,1013.08
2018-09-02T00:12:29.604Z,1013.09
2018-09-02T00:12:50.392Z,1013.12
2018-09-02T00:13:10.261Z,1013.15
2018-09-02T00:13:30.629Z,1013.15
2018-09-02T00:13:51.339Z,1013.17
2018-09-02T00:14:11.283Z,1013.23
2018-09-02T00:14:31.630Z,1013.20
2018-09-02T00:14:52.317Z,1013.16
2018-09-02T00:15:12.419Z,1013.15
2018-09-02T00:15:32.505Z,1013.17
2018-09-02T00:15:52.655Z,1013.19
2018-09-02T00:16:12.512Z,1013.20
2018-09-02T00:16:32.891Z,1013.18
2018-09-02T00:16:53.544Z,1013.21
2018-09-02T00:17:13.448Z,1013.22
2018-09-02T00:17:34.197Z,1013.18
2018-09-02T00:17:54.157Z,1013.19
2018-09-02T00:18:14.523Z,1013.21
2018-09-02T00:18:35.233Z,1013.21
2018-09-02T00:18:55.086Z,1013.23
2018-09-02T00:19:15.449Z,1013.23
2018-09-02T00:19:36.154Z,1013.17
2018-09-02T00:19:56.050Z,1013.23
2018-09-02T00:20:16.734Z,1013.21
2018-09-02T00:20:37.028Z,1013.21
2018-09-02T00:20:56.788Z,1013.22
2018-09-02T00:21:17.177Z,1013.14
2018-09-02T00:21:37.836Z,1013.24
2018-09-02T00:21:57.727Z,1013.14
2018-09-02T00:22:18.200Z,1013.16
2018-09-02T00:22:38.846Z,1013.21
2018-09-02T00:22:58.774Z,1013.21
2018-09-02T00:23:19.463Z,1013.20
2018-09-02T00:23:39.463Z,1013.22
2018-09-02T00:23:59.848Z,1013.22
2018-09-02T00:24:20.593Z,1013.20
2018-09-02T00:24:40.452Z,1013.19
2018-09-02T00:25:00.958Z,1013.19
2018-09-02T00:25:21.143Z,1013.14
2018-09-02T00:25:41.015Z,1013.16
2018-09-02T00:26:01.646Z,1013.18
2018-09-02T00:26:21.813Z,1013.26
2018-09-02T00:26:41.670Z,1013.25
2018-09-02T00:27:02.063Z,1013.25
2018-09-02T00:27:22.734Z,1013.24
2018-09-02T00:27:42.588Z,1013.24
2018-09-02T00:28:03.007Z,1013.24
2018-09-02T00:28:23.668Z,1013.25
2018-09-02T00:28:43.533Z,1013.24
2018-09-02T00:29:04.328Z,1013.25
2018-09-02T00:29:24.527Z,1013.26
2018-09-02T00:29:44.383Z,1013.27
2018-09-02T00:30:05.141Z,1013.28
2018-09-02T00:30:25.044Z,1013.22
2018-09-02T00:30:45.397Z,1013.26
2018-09-02T00:31:06.125Z,1013.30
2018-09-02T00:31:26.009Z,1013.27
2018-09-02T00:31:46.364Z,1013.28
2018-09-02T00:32:07.073Z,1013.26
2018-09-02T00:32:26.944Z,1013.30
2018-09-02T00:32:47.305Z,1013.30
2018-09-02T00:33:07.852Z,1013.23
2018-09-02T00:33:28.403Z,1013.24
2018-09-02T00:33:48.527Z,1013.25
2018-09-02T00:34:08.330Z,1013.25
2018-09-02T00:34:28.711Z,1013.28
2018-09-02T00:34:49.390Z,1013.28
2018-09-02T00:35:09.348Z,1013.28
2018-09-02T00:35:29.690Z,1013.27
2018-09-02T00:35:50.383Z,1013.29
2018-09-02T00:36:10.251Z,1013.29
2018-09-02T00:36:30.680Z,1013.29
2018-09-02T00:36:51.354Z,1013.30
2018-09-02T00:37:11.225Z,1013.33
2018-09-02T00:37:31.701Z,1013.25
2018-09-02T00:37:52.373Z,1013.33
2018-09-02T00:38:12.232Z,1013.32
2018-09-02T00:38:32.578Z,1013.30
2018-09-02T00:38:53.231Z,1013.29
2018-09-02T00:39:13.239Z,1013.22
2018-09-02T00:39:33.262Z,1013.24
2018-09-02T00:39:53.404Z,1013.24
2018-09-02T00:40:13.487Z,1013.30
2018-09-02T00:40:33.650Z,1013.28
2018-09-02T00:40:53.786Z,1013.28
2018-09-02T00:41:13.648Z,1013.27
2018-09-02T00:41:34.353Z,1013.28
2018-09-02T00:41:54.325Z,1013.22
2018-09-02T00:42:14.674Z,1013.20
2018-09-02T00:42:35.393Z,1013.19
2018-09-02T00:42:55.274Z,1013.19
2018-09-02T00:43:15.803Z,1013.20
2018-09-02T00:43:36.009Z,1013.21
2018-09-02T00:43:55.867Z,1013.21
2018-09-02T00:44:16.455Z,1013.24
2018-09-02T00:44:36.619Z,1013.21
2018-09-02T00:44:56.535Z,1013.23
2018-09-02T00:45:16.998Z,1013.24
2018-09-02T00:45:37.650Z,1013.24
2018-09-02T00:45:57.494Z,1013.26
2018-09-02T00:46:17.851Z,1013.24
2018-09-02T00:46:38.510Z,1013.23
2018-09-02T00:46:58.375Z,1013.22
2018-09-02T00:47:19.050Z,1013.22
2018-09-02T00:47:39.206Z,1013.26
2018-09-02T00:47:59.064Z,1013.24
2018-09-02T00:48:19.798Z,1013.25
2018-09-02T00:48:39.762Z,1013.25
2018-09-02T00:49:00.129Z,1013.22
2018-09-02T00:49:20.861Z,1013.24
2018-09-02T00:49:40.724Z,1013.23
2018-09-02T00:50:01.105Z,1013.24
2018-09-02T00:50:21.817Z,1013.21
2018-09-02T00:50:41.707Z,1013.27
2018-09-02T00:51:02.099Z,1013.25
2018-09-02T00:51:22.702Z,1013.18
2018-09-02T00:51:42.562Z,1013.18
2018-09-02T00:52:03.261Z,1013.22
2018-09-02T00:52:23.412Z,1013.23
2018-09-02T00:52:43.272Z,1013.23
2018-09-02T00:53:03.959Z,1013.23
2018-09-02T00:53:24.125Z,1013.22
2018-09-02T00:53:44.003Z,1013.26
2018-09-02T00:54:04.688Z,1013.25
2018-09-02T00:54:24.529Z,1013.26
2018-09-02T00:54:44.972Z,1013.25
2018-09-02T00:55:05.668Z,1013.22
2018-09-02T00:55:25.531Z,1013.23
2018-09-02T00:55:45.891Z,1013.21
2018-09-02T00:56:06.596Z,1013.20
2018-09-02T00:56:26.447Z,1013.27
2018-09-02T00:56:46.870Z,1013.15
2018-09-02T00:57:07.484Z,1013.15
2018-09-02T00:57:27.406Z,1013.19
2018-09-02T00:57:47.768Z,1013.20
2018-09-02T00:58:08.382Z,1013.11
2018-09-02T00:58:28.237Z,1013.25
2018-09-02T00:58:48.913Z,1013.23
2018-09-02T00:59:09.269Z,1013.15
2018-09-02T00:59:29.129Z,1013.15
2018-09-02T00:59:49.812Z,1013.15
2018-09-02T01:00:09.744Z,1013.16
2018-09-02T01:00:30.099Z,1013.10
2018-09-02T01:00:50.810Z,1013.11
2018-09-02T01:01:10.665Z,1013.12
2018-09-02T01:01:31.049Z,1013.12
2018-09-02T01:01:51.765Z,1013.13
2018-09-02T01:02:11.640Z,1013.14
2018-09-02T01:02:31.997Z,1013.15
2018-09-02T01:03:12.358Z,1013.15
2018-09-02T01:03:32.729Z,1013.13
2018-09-02T01:03:53.387Z,1013.12
2018-09-02T01:04:13.260Z,1013.12
2018-09-02T01:04:33.992Z,1013.10
2018-09-02T01:04:54.160Z,1013.12
2018-09-02T01:05:14.282Z,1013.11
2018-09-02T01:05:34.451Z,1013.11
2018-09-02T01:05:54.712Z,1013.11
2018-09-02T01:06:14.568Z,1013.11
2018-09-02T01:06:35.267Z,1013.09
2018-09-02T01:06:55.352Z,1013.11
2018-09-02T01:07:15.212Z,1013.08
2018-09-02T01:07:35.958Z,1013.09
2018-09-02T01:07:55.823Z,1013.08
2018-09-02T01:08:16.237Z,1013.09
2018-09-02T01:08:36.942Z,1013.10
2018-09-02T01:08:56.823Z,1013.07
2018-09-02T01:09:17.200Z,1013.08
2018-09-02T01:09:37.843Z,1013.09
2018-09-02T01:09:57.705Z,1013.09
2018-09-02T01:10:18.356Z,1013.09
2018-09-02T01:10:38.504Z,1013.08
2018-09-02T01:10:58.429Z,1013.09
2018-09-02T01:11:19.151Z,1013.08
2018-09-02T01:11:39.202Z,1013.07
2018-09-02T01:11:59.070Z,1013.03
2018-09-02T01:12:19.780Z,1013.08
2018-09-02T01:12:39.677Z,1013.10
2018-09-02T01:13:00.033Z,1013.09
2018-09-02T01:13:20.791Z,1013.08
2018-09-02T01:13:40.701Z,1013.08
2018-09-02T01:14:01.078Z,1013.09
2018-09-02T01:14:21.818Z,1013.09
2018-09-02T01:14:41.757Z,1013.07
2018-09-02T01:15:02.419Z,1013.06
2018-09-02T01:15:22.563Z,1013.02
2018-09-02T01:15:42.422Z,1013.01
2018-09-02T01:16:03.070Z,1013.00
2018-09-02T01:16:23.226Z,1013.02
2018-09-02T01:16:43.095Z,1013.04
2018-09-02T01:17:03.770Z,1013.03
2018-09-02T01:17:23.924Z,1012.98
2018-09-02T01:17:43.783Z,1012.99
2018-09-02T01:18:04.459Z,1013.02
2018-09-02T01:18:24.503Z,1013.00
2018-09-02T01:18:44.366Z,1013.03
2018-09-02T01:19:05.110Z,1013.02
2018-09-02T01:19:24.954Z,1012.99
2018-09-02T01:19:45.338Z,1013.04
2018-09-02T01:20:06.055Z,1013.03
2018-09-02T01:20:25.937Z,1013.03
2018-09-02T01:20:46.312Z,1013.00
2018-09-02T01:21:06.963Z,1012.94
2018-09-02T01:21:26.936Z,1013.01
2018-09-02T01:21:47.293Z,1013.04
2018-09-02T01:22:07.959Z,1013.04
2018-09-02T01:22:27.816Z,1013.03
2018-09-02T01:22:48.316Z,1012.98
2018-09-02T01:23:08.316Z,1013.00
2018-09-02T01:23:28.662Z,1012.98
2018-09-02T01:23:49.411Z,1012.98
2018-09-02T01:24:09.267Z,1012.97
2018-09-02T01:24:29.657Z,1013.00
2018-09-02T01:24:50.341Z,1013.00
2018-09-02T01:25:10.207Z,1012.99
2018-09-02T01:25:30.562Z,1012.98
2018-09-02T01:25:51.233Z,1013.02
2018-09-02T01:26:11.089Z,1012.99
2018-09-02T01:26:31.439Z,1013.03
2018-09-02T01:26:52.131Z,1013.02
2018-09-02T01:27:11.995Z,1012.98
2018-09-02T01:27:32.373Z,1012.99
2018-09-02T01:27:53.026Z,1012.93
2018-09-02T01:28:12.896Z,1012.93
2018-09-02T01:28:33.532Z,1012.93
2018-09-02T01:28:53.670Z,1012.95
2018-09-02T01:29:13.525Z,1012.93
2018-09-02T01:29:34.228Z,1012.91
2018-09-02T01:29:54.234Z,1012.91
2018-09-02T01:30:14.131Z,1012.91
2018-09-02T01:30:34.851Z,1012.89
2018-09-02T01:30:54.707Z,1012.89
2018-09-02T01:31:15.074Z,1012.90
2018-09-02T01:31:35.781Z,1012.91
2018-09-02T01:31:55.642Z,1012.88
2018-09-02T01:32:16.004Z,1012.88
2018-09-02T01:32:36.681Z,1012.92
2018-09-02T01:32:56.537Z,1012.91
2018-09-02T01:33:16.920Z,1012.85
2018-09-02T01:33:37.563Z,1012.93
2018-09-02T01:33:57.426Z,1012.93
2018-09-02T01:34:17.790Z,1012.93
2018-09-02T01:34:38.451Z,1012.91
2018-09-02T01:34:58.307Z,1012.92
2018-09-02T01:35:19.028Z,1012.92
2018-09-02T01:35:39.156Z,1012.92
2018-09-02T01:35:59.021Z,1012.94
2018-09-02T01:36:19.707Z,1012.92
2018-09-02T01:36:39.580Z,1012.96
2018-09-02T01:36:59.928Z,1012.93
2018-09-02T01:37:20.675Z,1012.93
2018-09-02T01:37:40.594Z,1012.93
2018-09-02T01:38:00.941Z,1013.03
2018-09-02T01:38:21.621Z,1013.02
2018-09-02T01:38:41.531Z,1012.87
2018-09-02T01:39:01.975Z,1012.88
2018-09-02T01:39:22.619Z,1012.88
2018-09-02T01:39:42.483Z,1012.92
2018-09-02T01:40:03.220Z,1012.92
2018-09-02T01:40:23.391Z,1012.91
2018-09-02T01:40:43.309Z,1012.94
2018-09-02T01:41:03.960Z,1012.94
2018-09-02T01:41:23.964Z,1012.95
2018-09-02T01:41:43.817Z,1012.96
2018-09-02T01:42:04.584Z,1012.97
2018-09-02T01:42:24.430Z,1012.97
2018-09-02T01:42:44.792Z,1012.97
2018-09-02T01:43:05.544Z,1012.97
2018-09-02T01:43:25.411Z,1012.96
2018-09-02T01:43:45.787Z,1012.98
2018-09-02T01:44:06.457Z,1012.98
2018-09-02T01:44:26.323Z,1012.97
2018-09-02T01:44:46.676Z,1012.98
2018-09-02T01:45:27.030Z,1012.98
2018-09-02T01:45:47.382Z,1012.98
2018-09-02T01:46:07.914Z,1012.94
2018-09-02T01:46:27.787Z,1012.94
2018-09-02T01:46:48.345Z,1012.94
2018-09-02T01:47:08.256Z,1012.93
2018-09-02T01:47:49.018Z,1012.95
2018-09-02T01:48:09.269Z,1012.96
2018-09-02T01:48:29.218Z,1012.98
2018-09-02T01:48:49.974Z,1013.04
2018-09-02T01:49:09.888Z,1012.95
2018-09-02T01:49:50.608Z,1012.96
2018-09-02T01:50:10.484Z,1012.98
2018-09-02T01:50:30.880Z,1012.96
2018-09-02T01:50:51.535Z,1012.96
2018-09-02T01:51:11.387Z,1012.92
2018-09-02T01:51:31.768Z,1012.92
2018-09-02T01:51:52.445Z,1012.92
2018-09-02T01:52:12.301Z,1012.97
2018-09-02T01:52:32.667Z,1013.00
2018-09-02T01:52:53.323Z,1012.99
2018-09-02T01:53:13.237Z,1012.99
2018-09-02T01:53:33.930Z,1012.96
2018-09-02T01:53:54.075Z,1012.92
2018-09-02T01:54:13.938Z,1012.93
2018-09-02T01:54:34.690Z,1012.92
2018-09-02T01:54:54.618Z,1012.92
2018-09-02T01:55:15.293Z,1012.91
2018-09-02T01:55:35.542Z,1012.90
2018-09-02T01:55:55.407Z,1012.89
2018-09-02T01:56:15.771Z,1012.89
2018-09-02T01:56:36.499Z,1012.89
2018-09-02T01:56:56.365Z,1012.89
2018-09-02T01:57:16.737Z,1012.88
2018-09-02T01:57:37.406Z,1012.88
2018-09-02T01:57:57.287Z,1012.88
2018-09-02T01:58:17.652Z,1012.88
2018-09-02T01:58:38.302Z,1012.88
2018-09-02T01:58:58.151Z,1012.87
2018-09-02T01:59:18.854Z,1012.87
2018-09-02T01:59:39.015Z,1012.87
2018-09-02T01:59:58.846Z,1012.87
2018-09-02T02:00:19.523Z,1012.86
2018-09-02T02:00:39.619Z,1012.85
2018-09-02T02:00:59.474Z,1012.83
2018-09-02T02:01:20.225Z,1012.78
2018-09-02T02:01:40.082Z,1012.80
2018-09-02T02:02:00.449Z,1012.81
2018-09-02T02:02:21.121Z,1012.85
2018-09-02T02:02:41.059Z,1012.84
2018-09-02T02:03:01.419Z,1012.85
2018-09-02T02:03:22.100Z,1012.84
2018-09-02T02:03:41.964Z,1012.85
2018-09-02T02:04:02.459Z,1012.77
2018-09-02T02:04:23.092Z,1012.79
2018-09-02T02:04:42.956Z,1012.80
2018-09-02T02:05:03.564Z,1012.81
2018-09-02T02:05:23.712Z,1012.84
2018-09-02T02:05:43.569Z,1012.84
2018-09-02T02:06:04.289Z,1012.85
2018-09-02T02:06:24.389Z,1012.86
2018-09-02T02:06:44.251Z,1012.88
2018-09-02T02:07:05.008Z,1012.89
2018-09-02T02:07:24.878Z,1012.90
2018-09-02T02:07:45.244Z,1012.89
2018-09-02T02:08:06.019Z,1012.87
2018-09-02T02:08:25.902Z,1012.86
2018-09-02T02:08:46.252Z,1012.86
2018-09-02T02:09:07.021Z,1012.84
2018-09-02T02:09:27.018Z,1012.84
2018-09-02T02:09:47.370Z,1012.84
2018-09-02T02:10:08.020Z,1012.84
2018-09-02T02:10:27.945Z,1012.83
2018-09-02T02:10:48.528Z,1012.83
2018-09-02T02:11:28.406Z,1012.84
2018-09-02T02:11:49.072Z,1012.85
2018-09-02T02:12:09.130Z,1012.88
2018-09-02T02:12:29.011Z,1012.78
2018-09-02T02:12:49.692Z,1012.79
2018-09-02T02:13:09.591Z,1012.79
2018-09-02T02:13:29.985Z,1012.86
2018-09-02T02:13:50.704Z,1012.84
2018-09-02T02:14:10.552Z,1012.81
2018-09-02T02:14:30.908Z,1012.81
2018-09-02T02:14:51.564Z,1012.82
2018-09-02T02:15:11.485Z,1012.80
2018-09-02T02:15:31.894Z,1012.80
2018-09-02T02:15:52.549Z,1012.76
2018-09-02T02:16:12.427Z,1012.77
2018-09-02T02:16:32.796Z,1012.73
2018-09-02T02:16:53.499Z,1012.73
2018-09-02T02:17:13.375Z,1012.75
2018-09-02T02:17:34.133Z,1012.77
2018-09-02T02:17:54.305Z,1012.77
2018-09-02T02:18:14.173Z,1012.76
2018-09-02T02:18:34.947Z,1012.77
2018-09-02T02:18:54.795Z,1012.76
2018-09-02T02:19:15.167Z,1012.77
2018-09-02T02:19:35.888Z,1012.78
2018-09-02T02:19:55.751Z,1012.77
2018-09-02T02:20:16.432Z,1012.75
2018-09-02T02:20:36.392Z,1012.75
2018-09-02T02:20:56.802Z,1012.74
2018-09-02T02:21:17.165Z,1012.75
2018-09-02T02:21:37.801Z,1012.74
2018-09-02T02:21:57.666Z,1012.70
2018-09-02T02:22:18.135Z,1012.71
2018-09-02T02:22:38.792Z,1012.72
2018-09-02T02:22:58.801Z,1012.72
2018-09-02T02:23:18.995Z,1012.72
2018-09-02T02:23:39.252Z,1012.73
2018-09-02T02:23:59.105Z,1012.74
2018-09-02T02:24:19.828Z,1012.73
2018-09-02T02:24:39.688Z,1012.70
2018-09-02T02:25:00.081Z,1012.79
2018-09-02T02:25:20.841Z,1012.76
2018-09-02T02:25:40.719Z,1012.68
2018-09-02T02:26:01.147Z,1012.73
2018-09-02T02:26:21.870Z,1012.70
2018-09-02T02:26:41.769Z,1012.76
2018-09-02T02:27:02.412Z,1012.75
2018-09-02T02:27:22.601Z,1012.68
2018-09-02T02:27:42.496Z,1012.69
2018-09-02T02:28:03.165Z,1012.72
2018-09-02T02:28:23.319Z,1012.72
2018-09-02T02:28:43.181Z,1012.72
2018-09-02T02:29:03.905Z,1012.77
2018-09-02T02:29:24.027Z,1012.65
2018-09-02T02:29:43.896Z,1012.66
2018-09-02T02:30:04.644Z,1012.65
2018-09-02T02:30:24.804Z,1012.66
2018-09-02T02:30:44.742Z,1012.70
2018-09-02T02:31:05.460Z,1012.69
2018-09-02T02:31:25.352Z,1012.68
2018-09-02T02:31:45.709Z,1012.67
2018-09-02T02:32:06.426Z,1012.66
2018-09-02T02:32:26.339Z,1012.68
2018-09-02T02:32:46.736Z,1012.67
2018-09-02T02:33:07.392Z,1012.67
2018-09-02T02:33:27.251Z,1012.71
2018-09-02T02:33:47.647Z,1012.70
2018-09-02T02:34:08.339Z,1012.68
2018-09-02T02:34:28.182Z,1012.61
2018-09-02T02:34:48.882Z,1012.63
2018-09-02T02:35:09.051Z,1012.64
2018-09-02T02:35:28.933Z,1012.64
2018-09-02T02:35:49.685Z,1012.62
2018-09-02T02:36:09.559Z,1012.63
2018-09-02T02:36:29.936Z,1012.60
2018-09-02T02:36:50.648Z,1012.56
2018-09-02T02:37:10.616Z,1012.58
2018-09-02T02:37:30.974Z,1012.60
2018-09-02T02:37:51.686Z,1012.60
2018-09-02T02:38:11.624Z,1012.60
2018-09-02T02:38:31.987Z,1012.60
2018-09-02T02:38:52.643Z,1012.61
2018-09-02T02:39:32.515Z,1012.60
2018-09-02T02:39:53.172Z,1012.59
2018-09-02T02:40:13.042Z,1012.62
2018-09-02T02:40:33.697Z,1012.63
2018-09-02T02:40:53.878Z,1012.63
2018-09-02T02:41:13.751Z,1012.63
2018-09-02T02:41:54.535Z,1012.63
2018-09-02T02:42:14.384Z,1012.64
2018-09-02T02:42:35.111Z,1012.73
2018-09-02T02:42:54.965Z,1012.71
2018-09-02T02:43:15.374Z,1012.60
2018-09-02T02:43:36.043Z,1012.63
2018-09-02T02:43:55.923Z,1012.62
2018-09-02T02:44:16.307Z,1012.62
2018-09-02T02:44:37.050Z,1012.62
2018-09-02T02:44:56.910Z,1012.63
2018-09-02T02:45:17.317Z,1012.62
2018-09-02T02:45:37.967Z,1012.62
2018-09-02T02:45:57.852Z,1012.61
2018-09-02T02:46:18.479Z,1012.61
2018-09-02T02:46:38.653Z,1012.60
2018-09-02T02:46:58.509Z,1012.60
2018-09-02T02:47:19.229Z,1012.56
2018-09-02T02:47:39.217Z,1012.65
2018-09-02T02:47:59.568Z,1012.61
2018-09-02T02:48:20.310Z,1012.61
2018-09-02T02:48:40.182Z,1012.62
2018-09-02T02:49:00.544Z,1012.60
2018-09-02T02:49:21.289Z,1012.62
2018-09-02T02:49:41.158Z,1012.55
2018-09-02T02:50:01.613Z,1012.67
2018-09-02T02:50:22.273Z,1012.63
2018-09-02T02:50:42.201Z,1012.61
2018-09-02T02:51:02.832Z,1012.53
2018-09-02T02:51:22.986Z,1012.60
2018-09-02T02:51:42.909Z,1012.59
2018-09-02T02:52:03.607Z,1012.60
2018-09-02T02:52:23.756Z,1012.53
2018-09-02T02:52:43.692Z,1012.60
2018-09-02T02:53:04.381Z,1012.60
2018-09-02T02:53:24.501Z,1012.60
2018-09-02T02:53:44.357Z,1012.59
2018-09-02T02:54:05.056Z,1012.60
2018-09-02T02:54:24.961Z,1012.57
2018-09-02T02:54:45.334Z,1012.56
2018-09-02T02:55:05.987Z,1012.55
2018-09-02T02:55:25.839Z,1012.61
2018-09-02T02:55:46.220Z,1012.60
2018-09-02T02:56:26.595Z,1012.54
2018-09-02T02:56:46.947Z,1012.60
2018-09-02T02:57:07.624Z,1012.58
2018-09-02T02:57:27.503Z,1012.58
2018-09-02T02:57:47.986Z,1012.58
2018-09-02T02:58:08.381Z,1012.57
2018-09-02T02:58:28.760Z,1012.55
2018-09-02T02:58:49.525Z,1012.57
2018-09-02T02:59:09.661Z,1012.56
2018-09-02T02:59:29.524Z,1012.54
2018-09-02T02:59:50.236Z,1012.53
2018-09-02T03:00:10.086Z,1012.54
2018-09-02T03:00:30.432Z,1012.51
2018-09-02T03:00:51.145Z,1012.54
2018-09-02T03:01:11.012Z,1012.53
2018-09-02T03:01:31.370Z,1012.54
2018-09-02T03:01:52.067Z,1012.54
2018-09-02T03:02:11.921Z,1012.56
2018-09-02T03:02:32.277Z,1012.55
2018-09-02T03:02:52.945Z,1012.55
2018-09-02T03:03:12.803Z,1012.61
2018-09-02T03:03:33.350Z,1012.60
2018-09-02T03:03:53.501Z,1012.59
2018-09-02T03:04:13.361Z,1012.57
2018-09-02T03:04:34.052Z,1012.55
2018-09-02T03:04:54.129Z,1012.54
2018-09-02T03:05:14.297Z,1012.55
2018-09-02T03:05:34.477Z,1012.54
2018-09-02T03:05:54.417Z,1012.57
2018-09-02T03:06:14.785Z,1012.48
2018-09-02T03:06:35.543Z,1012.51
2018-09-02T03:06:55.453Z,1012.52
2018-09-02T03:07:15.811Z,1012.53
2018-09-02T03:07:36.491Z,1012.52
2018-09-02T03:07:56.354Z,1012.54
2018-09-02T03:08:16.699Z,1012.53
2018-09-02T03:08:37.379Z,1012.52
2018-09-02T03:08:57.217Z,1012.50
2018-09-02T03:09:17.853Z,1012.51
2018-09-02T03:09:37.699Z,1012.60
2018-09-02T03:09:58.064Z,1012.58
2018-09-02T03:10:18.773Z,1012.59
2018-09-02T03:10:38.932Z,1012.55
2018-09-02T03:10:58.782Z,1012.53
2018-09-02T03:11:19.564Z,1012.52
2018-09-02T03:11:39.575Z,1012.55
2018-09-02T03:11:59.447Z,1012.56
2018-09-02T03:12:20.211Z,1012.59
2018-09-02T03:12:40.069Z,1012.50
2018-09-02T03:13:00.447Z,1012.52
2018-09-02T03:13:21.166Z,1012.54
2018-09-02T03:13:41.020Z,1012.55
2018-09-02T03:14:01.373Z,1012.54
2018-09-02T03:14:22.051Z,1012.55
2018-09-02T03:14:42.075Z,1012.54
2018-09-02T03:15:02.195Z,1012.51
2018-09-02T03:15:22.390Z,1012.51
2018-09-02T03:15:42.246Z,1012.51
2018-09-02T03:16:02.596Z,1012.53
2018-09-02T03:16:23.252Z,1012.53
2018-09-02T03:16:43.128Z,1012.52
2018-09-02T03:17:03.897Z,1012.53
2018-09-02T03:17:24.056Z,1012.52
2018-09-02T03:17:43.917Z,1012.52
2018-09-02T03:18:04.647Z,1012.49
2018-09-02T03:18:24.636Z,1012.50
2018-09-02T03:18:44.977Z,1012.47
2018-09-02T03:19:05.663Z,1012.48
2018-09-02T03:19:25.528Z,1012.50
2018-09-02T03:19:45.903Z,1012.49
2018-09-02T03:20:06.546Z,1012.48
2018-09-02T03:20:26.462Z,1012.60
2018-09-02T03:20:46.823Z,1012.47
2018-09-02T03:21:07.500Z,1012.50
2018-09-02T03:21:47.373Z,1012.51
2018-09-02T03:22:08.016Z,1012.51
2018-09-02T03:22:27.886Z,1012.55
2018-09-02T03:22:48.561Z,1012.44
2018-09-02T03:23:08.658Z,1012.43
2018-09-02T03:23:28.547Z,1012.46
2018-09-02T03:23:49.299Z,1012.47
2018-09-02T03:24:09.247Z,1012.47
2018-09-02T03:24:29.616Z,1012.51
2018-09-02T03:24:50.366Z,1012.58
2018-09-02T03:25:10.256Z,1012.57
2018-09-02T03:25:30.671Z,1012.54
2018-09-02T03:25:51.413Z,1012.48
2018-09-02T03:26:11.266Z,1012.54
2018-09-02T03:26:31.636Z,1012.45
2018-09-02T03:26:52.381Z,1012.46
2018-09-02T03:27:12.254Z,1012.50
2018-09-02T03:27:32.625Z,1012.52
2018-09-02T03:27:53.300Z,1012.61
2018-09-02T03:28:13.177Z,1012.51
2018-09-02T03:28:33.850Z,1012.51
2018-09-02T03:28:54.006Z,1012.51
2018-09-02T03:29:13.864Z,1012.58
2018-09-02T03:29:34.608Z,1012.51
2018-09-02T03:29:54.474Z,1012.52
2018-09-02T03:30:14.920Z,1012.58
2018-09-02T03:30:35.639Z,1012.54
2018-09-02T03:30:55.627Z,1012.50
2018-09-02T03:31:16.106Z,1012.45
2018-09-02T03:31:36.829Z,1012.48
2018-09-02T03:31:57.012Z,1012.46
2018-09-02T03:32:16.889Z,1012.57
2018-09-02T03:32:37.549Z,1012.53
2018-09-02T03:32:57.426Z,1012.39
2018-09-02T03:33:17.808Z,1012.41
2018-09-02T03:33:38.470Z,1012.42
2018-09-02T03:33:58.339Z,1012.50
2018-09-02T03:34:18.984Z,1012.49
2018-09-02T03:34:39.098Z,1012.49
2018-09-02T03:34:58.963Z,1012.47
2018-09-02T03:35:19.673Z,1012.48
2018-09-02T03:35:39.859Z,1012.53
2018-09-02T03:35:59.760Z,1012.44
2018-09-02T03:36:20.499Z,1012.44
2018-09-02T03:36:40.391Z,1012.45
2018-09-02T03:37:00.753Z,1012.47
2018-09-02T03:37:21.490Z,1012.51
2018-09-02T03:37:41.370Z,1012.51
2018-09-02T03:38:01.776Z,1012.52
2018-09-02T03:38:22.445Z,1012.53
2018-09-02T03:38:42.296Z,1012.43
2018-09-02T03:39:02.968Z,1012.58
2018-09-02T03:39:23.141Z,1012.57
2018-09-02T03:39:42.993Z,1012.56
2018-09-02T03:40:03.782Z,1012.52
2018-09-02T03:40:24.082Z,1012.42
2018-09-02T03:40:43.907Z,1012.48
2018-09-02T03:41:04.611Z,1012.50
2018-09-02T03:41:24.584Z,1012.46
2018-09-02T03:41:44.940Z,1012.46
2018-09-02T03:42:05.661Z,1012.47
2018-09-02T03:42:25.561Z,1012.47
2018-09-02T03:42:45.907Z,1012.55
2018-09-02T03:43:06.546Z,1012.45
2018-09-02T03:43:26.429Z,1012.42
2018-09-02T03:43:46.915Z,1012.52
2018-09-02T03:44:07.564Z,1012.51
2018-09-02T03:44:27.425Z,1012.50
2018-09-02T03:44:47.804Z,1012.47
2018-09-02T03:45:08.444Z,1012.43
2018-09-02T03:45:28.293Z,1012.44
2018-09-02T03:45:49.015Z,1012.44
2018-09-02T03:46:09.198Z,1012.49
2018-09-02T03:46:29.053Z,1012.44
2018-09-02T03:46:49.775Z,1012.46
2018-09-02T03:47:09.625Z,1012.45
2018-09-02T03:47:30.005Z,1012.44
2018-09-02T03:47:50.714Z,1012.44
2018-09-02T03:48:10.584Z,1012.45
2018-09-02T03:48:51.264Z,1012.46
2018-09-02T03:49:11.129Z,1012.50
2018-09-02T03:49:31.489Z,1012.53
2018-09-02T03:49:52.241Z,1012.46
2018-09-02T03:50:12.095Z,1012.45
2018-09-02T03:50:32.467Z,1012.45
2018-09-02T03:50:53.108Z,1012.52
2018-09-02T03:51:12.971Z,1012.51
2018-09-02T03:51:33.663Z,1012.50
2018-09-02T03:51:53.818Z,1012.48
2018-09-02T03:52:13.658Z,1012.48
2018-09-02T03:52:34.383Z,1012.41
2018-09-02T03:53:14.281Z,1012.49
2018-09-02T03:53:35.020Z,1012.46
2018-09-02T03:53:54.876Z,1012.47
2018-09-02T03:54:15.289Z,1012.52
2018-09-02T03:54:35.990Z,1012.51
2018-09-02T03:54:55.895Z,1012.52
2018-09-02T03:55:16.545Z,1012.51
2018-09-02T03:55:36.758Z,1012.49
2018-09-02T03:55:56.641Z,1012.47
2018-09-02T03:56:16.995Z,1012.44
2018-09-02T03:56:37.638Z,1012.51
2018-09-02T03:56:57.481Z,1012.49
2018-09-02T03:57:17.880Z,1012.44
2018-09-02T03:57:38.525Z,1012.44
2018-09-02T03:57:58.383Z,1012.44
2018-09-02T03:58:19.146Z,1012.55
2018-09-02T03:58:39.162Z,1012.47
2018-09-02T03:58:59.040Z,1012.47
2018-09-02T03:59:19.726Z,1012.47
2018-09-02T03:59:39.602Z,1012.48
2018-09-02T03:59:59.946Z,1012.51
2018-09-02T04:00:20.604Z,1012.52
2018-09-02T04:00:40.483Z,1012.52
2018-09-02T04:01:00.882Z,1012.56
2018-09-02T04:01:21.542Z,1012.52
2018-09-02T04:01:41.401Z,1012.51
2018-09-02T04:02:02.042Z,1012.47
2018-09-02T04:02:22.246Z,1012.48
2018-09-02T04:02:42.102Z,1012.51
2018-09-02T04:03:02.818Z,1012.51
2018-09-02T04:03:22.950Z,1012.56
2018-09-02T04:03:42.827Z,1012.54
2018-09-02T04:04:03.476Z,1012.48
2018-09-02T04:04:23.622Z,1012.47
2018-09-02T04:04:43.539Z,1012.52
2018-09-02T04:05:04.278Z,1012.52
2018-09-02T04:05:24.577Z,1012.56
2018-09-02T04:05:44.431Z,1012.49
2018-09-02T04:06:05.189Z,1012.63
2018-09-02T04:06:25.061Z,1012.55
2018-09-02T04:06:45.474Z,1012.54
2018-09-02T04:07:06.189Z,1012.57
2018-09-02T04:07:26.036Z,1012.49
2018-09-02T04:07:46.411Z,1012.56
2018-09-02T04:08:07.095Z,1012.52
2018-09-02T04:08:26.951Z,1012.55
2018-09-02T04:08:47.301Z,1012.41
2018-09-02T04:09:07.993Z,1012.43
2018-09-02T04:09:27.923Z,1012.53